createdAt,value
2023-03-23T16:00:18.832Z,1.30
2023-03-23T16:02:47.621Z,1.27
2023-03-23T16:05:16.012Z,1.80
2023-03-23T16:07:43.596Z,1.10
2023-03-23T16:10:18.090Z,1.60
2023-03-23T16:12:46.042Z,1.80
2023-03-23T16:15:16.276Z,1.07
2023-03-23T16:17:44.907Z,1.47
2023-03-23T16:20:15.755Z,1.47
2023-03-23T16:22:43.422Z,1.23
2023-03-23T16:25:12.676Z,1.43
2023-03-23T16:27:44.411Z,1.40
2023-03-23T16:30:22.770Z,1.57
2023-03-23T16:32:52.501Z,1.20
2023-03-23T16:35:22.456Z,1.33
2023-03-23T16:38:07.383Z,1.13
2023-03-23T16:40:35.371Z,1.60
2023-03-23T16:43:09.084Z,1.63
2023-03-23T16:45:41.648Z,1.47
2023-03-23T16:48:11.991Z,1.40
2023-03-23T16:50:40.211Z,1.50
2023-03-23T16:53:09.794Z,1.40
2023-03-23T16:55:38.239Z,1.47
2023-03-23T16:58:16.539Z,1.50
2023-03-23T17:00:53.693Z,1.30
2023-03-23T17:03:22.700Z,1.33
2023-03-23T17:05:51.890Z,1.40
2023-03-23T17:08:21.254Z,1.40
2023-03-23T17:10:49.589Z,2.23
2023-03-23T17:13:17.901Z,1.50
2023-03-23T17:15:48.866Z,1.33
2023-03-23T17:18:17.401Z,1.20
2023-03-23T17:20:46.413Z,1.20
2023-03-23T17:23:26.255Z,1.30
2023-03-23T17:25:54.070Z,1.40
2023-03-23T17:28:22.989Z,2.10
2023-03-23T17:31:01.219Z,1.43
2023-03-23T17:33:29.176Z,1.40
2023-03-23T17:35:58.306Z,1.17
2023-03-23T17:38:28.513Z,1.43
2023-03-23T17:41:01.306Z,1.50
2023-03-23T17:43:29.572Z,1.43
2023-03-23T17:45:59.203Z,1.50
2023-03-23T17:48:27.256Z,1.50
2023-03-23T17:50:57.678Z,1.37
2023-03-23T17:56:11.311Z,1.90
2023-03-23T17:58:39.214Z,1.40
2023-03-23T18:01:08.786Z,1.67
2023-03-23T18:03:37.603Z,1.53
2023-03-23T18:06:28.561Z,1.40
2023-03-23T18:08:56.771Z,1.30
2023-03-23T18:11:24.677Z,1.30
2023-03-23T18:13:52.321Z,1.40
2023-03-23T18:16:21.465Z,1.40
2023-03-23T18:18:49.452Z,1.50
2023-03-23T18:21:18.096Z,1.50
2023-03-23T18:23:58.402Z,1.33
2023-03-23T18:26:27.792Z,1.10
2023-03-23T18:28:55.919Z,1.53
2023-03-23T18:31:25.205Z,1.73
2023-03-23T18:36:55.172Z,1.53
2023-03-23T18:39:25.168Z,1.70
2023-03-23T18:45:23.718Z,1.50
2023-03-23T18:47:55.300Z,1.60
2023-03-23T18:50:33.010Z,1.57
2023-03-23T18:53:02.911Z,1.13
2023-03-23T18:55:44.568Z,1.63
2023-03-23T18:58:12.978Z,1.60
2023-03-23T19:00:45.763Z,1.43
2023-03-23T19:03:21.683Z,1.57
2023-03-23T19:06:17.644Z,1.57
2023-03-23T19:08:45.800Z,1.53
2023-03-23T19:11:13.860Z,1.80
2023-03-23T19:13:53.898Z,1.50
2023-03-23T19:16:31.011Z,1.70
2023-03-23T19:18:58.759Z,1.43
2023-03-23T19:21:29.048Z,1.20
2023-03-23T19:24:00.042Z,1.37
2023-03-23T19:26:36.650Z,1.67
2023-03-23T19:31:40.841Z,1.40
2023-03-23T19:34:11.885Z,1.90
2023-03-23T19:36:40.310Z,1.70
2023-03-23T19:39:10.475Z,1.90
2023-03-23T19:41:38.954Z,2.20
2023-03-23T19:44:08.493Z,2.20
2023-03-23T19:46:38.206Z,1.70
2023-03-23T19:49:07.699Z,1.80
2023-03-23T19:51:36.662Z,1.67
2023-03-23T19:54:07.156Z,2.23
2023-03-23T19:56:36.798Z,1.70
2023-03-23T19:59:05.312Z,1.57
2023-03-23T20:01:33.653Z,1.77
2023-03-23T20:04:05.460Z,1.80
2023-03-23T20:06:34.657Z,1.77
2023-03-23T20:09:08.621Z,1.60
2023-03-23T20:11:39.168Z,1.93
2023-03-23T20:14:07.894Z,1.73
2023-03-23T20:16:36.025Z,1.90
2023-03-23T20:19:05.778Z,1.70
2023-03-23T20:21:36.386Z,2.03
2023-03-23T20:24:06.346Z,2.07
2023-03-23T20:26:36.866Z,2.10
2023-03-23T20:29:07.954Z,1.70
2023-03-23T20:31:42.274Z,2.23
2023-03-23T20:34:13.959Z,2.77
2023-03-23T20:36:45.136Z,2.37
2023-03-23T20:39:14.694Z,1.77
2023-03-23T20:41:45.570Z,2.07
2023-03-23T20:44:17.774Z,2.20
2023-03-23T20:46:46.468Z,2.10
2023-03-23T20:49:15.991Z,2.47
2023-03-23T20:51:47.597Z,1.73
2023-03-23T20:54:16.455Z,2.10
2023-03-23T20:56:48.359Z,2.10
2023-03-23T20:59:18.452Z,1.90
2023-03-23T21:01:46.416Z,2.00
2023-03-23T21:04:21.180Z,2.13
2023-03-23T21:06:50.279Z,2.00
2023-03-23T21:09:18.952Z,2.03
2023-03-23T21:11:49.016Z,2.50
2023-03-23T21:14:17.365Z,2.20
2023-03-23T21:16:45.338Z,2.10
2023-03-23T21:19:15.218Z,2.30
2023-03-23T21:21:56.329Z,2.30
2023-03-23T21:24:30.772Z,2.10
2023-03-23T21:27:02.053Z,2.60
2023-03-23T21:29:45.398Z,2.73
2023-03-23T21:32:20.734Z,2.50
2023-03-23T21:35:01.712Z,2.23
2023-03-23T21:37:35.081Z,2.70
2023-03-23T21:40:04.270Z,2.10
2023-03-23T21:42:34.631Z,2.43
2023-03-23T21:45:03.010Z,2.50
2023-03-23T21:47:32.106Z,2.40
2023-03-23T21:50:06.487Z,2.23
2023-03-23T21:52:36.862Z,2.30
2023-03-23T21:55:05.043Z,2.70
2023-03-23T21:57:34.826Z,2.63
2023-03-23T22:00:05.327Z,2.80
2023-03-23T22:02:34.904Z,2.80
2023-03-23T22:05:10.614Z,2.60
2023-03-23T22:07:39.781Z,2.70
2023-03-23T22:10:09.109Z,3.00
2023-03-23T22:12:43.200Z,2.90
2023-03-23T22:15:18.852Z,2.77
2023-03-23T22:17:48.847Z,2.47
2023-03-23T22:20:17.880Z,3.13
2023-03-23T22:22:45.916Z,2.53
2023-03-23T22:25:15.272Z,2.67
2023-03-23T22:27:42.868Z,2.60
2023-03-23T22:30:11.199Z,2.90
2023-03-23T22:32:39.264Z,2.60
2023-03-23T22:35:07.609Z,2.60
2023-03-23T22:37:36.536Z,3.07
2023-03-23T22:40:07.205Z,2.53
2023-03-23T22:42:36.120Z,2.50
2023-03-23T22:45:03.892Z,2.63
2023-03-23T22:47:31.663Z,2.00
2023-03-23T22:50:03.067Z,2.83
2023-03-23T22:52:31.570Z,2.77
2023-03-23T22:55:00.706Z,2.50
2023-03-23T22:57:28.441Z,2.37
2023-03-23T22:59:56.191Z,2.47
2023-03-23T23:02:23.873Z,3.17
2023-03-23T23:04:54.421Z,2.53
2023-03-23T23:07:22.155Z,2.63
2023-03-23T23:09:50.544Z,3.03
2023-03-23T23:12:21.585Z,2.67
2023-03-23T23:14:49.817Z,2.50
2023-03-23T23:17:17.725Z,2.53
2023-03-23T23:19:45.406Z,2.80
2023-03-23T23:22:18.832Z,2.73
2023-03-23T23:24:47.554Z,3.30
2023-03-23T23:27:15.498Z,3.33
2023-03-23T23:29:44.742Z,3.00
2023-03-23T23:32:12.517Z,2.73
2023-03-23T23:34:40.271Z,3.30
2023-03-23T23:37:09.022Z,3.33
2023-03-23T23:39:38.476Z,3.00
2023-03-23T23:42:08.692Z,3.00
2023-03-23T23:44:36.795Z,3.10
2023-03-23T23:47:06.486Z,3.23
2023-03-23T23:49:34.350Z,2.60
2023-03-23T23:52:02.179Z,3.10
2023-03-23T23:54:30.618Z,3.43
2023-03-23T23:57:00.014Z,3.00
2023-03-23T23:59:28.793Z,3.33
